Rexmere, Louisiana
Current Conditions -  °F | °C
As of 2:53 AM on Monday 24 Nov 2014 (Local Time) from KESF Reporting Station
Clear Clear  
Wind Chill: 58°   Ceiling: Unl
Heat Index: 58°   Visibility: 10mi
Dew Point: 55°   Wind: 5mph
Humidity: 90%   Direction: 280°W
Pressure: 29.74"   Gusts: NA
Location:  31.0386°N, 91.9871°W
Report Text: KESF 240853Z AUTO 28004KT 10SM CLR 14/13 A2974 RMK AO2 SLP071 T01440128 53028
Loading
Personal Weather Stations






























Interactive Weather Map New forecast layout! Learn more

10-Day Weather Forecast

Advertisements
Track Severe Weather on mobile